createdAt,value
2018-11-29T00:00:34.091Z,9.70
2018-11-29T00:03:01.740Z,10.00
2018-11-29T00:05:29.402Z,10.33
2018-11-29T00:07:57.011Z,8.73
2018-11-29T00:10:24.731Z,9.47
2018-11-29T00:12:52.405Z,10.13
2018-11-29T00:15:20.289Z,8.80
2018-11-29T00:17:48.072Z,7.57
2018-11-29T00:20:17.392Z,6.97
2018-11-29T00:22:45.789Z,7.67
2018-11-29T00:25:14.306Z,7.67
2018-11-29T00:27:42.272Z,6.83
2018-11-29T00:30:11.901Z,6.77
2018-11-29T00:32:39.791Z,5.70
2018-11-29T00:35:08.749Z,6.37
2018-11-29T00:37:36.354Z,7.87
2018-11-29T00:40:05.699Z,7.40
2018-11-29T00:42:33.420Z,6.23
2018-11-29T00:45:01.056Z,6.60
2018-11-29T00:47:28.783Z,7.10
2018-11-29T00:49:56.436Z,7.13
2018-11-29T00:52:25.183Z,6.53
2018-11-29T00:54:52.844Z,6.50
2018-11-29T00:57:20.557Z,7.00
2018-11-29T00:59:48.203Z,6.50
2018-11-29T01:02:15.879Z,10.40
2018-11-29T01:04:45.614Z,17.17
2018-11-29T01:07:13.249Z,16.93
2018-11-29T01:09:41.349Z,18.40
2018-11-29T01:12:08.941Z,16.27
2018-11-29T01:14:36.576Z,14.30
2018-11-29T01:17:04.267Z,16.20
2018-11-29T01:19:31.957Z,15.97
2018-11-29T01:22:00.806Z,14.37
2018-11-29T01:24:28.483Z,13.00
2018-11-29T01:26:56.201Z,11.90
2018-11-29T01:29:23.840Z,10.73
2018-11-29T01:31:51.479Z,10.20
2018-11-29T01:34:19.110Z,13.50
2018-11-29T01:36:46.719Z,12.67
2018-11-29T01:39:14.349Z,16.57
2018-11-29T01:41:41.934Z,13.17
2018-11-29T01:44:09.544Z,12.40
2018-11-29T01:46:37.213Z,12.30
2018-11-29T01:49:04.963Z,11.23
2018-11-29T01:51:32.760Z,11.00
2018-11-29T01:54:00.406Z,10.17
2018-11-29T01:56:28.026Z,9.80
2018-11-29T01:58:55.692Z,10.37
2018-11-29T02:01:23.424Z,9.17
2018-11-29T02:03:51.037Z,11.20
2018-11-29T02:06:18.718Z,15.80
2018-11-29T02:08:46.433Z,16.90
2018-11-29T02:11:14.169Z,16.50
2018-11-29T02:13:41.839Z,13.97
2018-11-29T02:16:09.578Z,12.40
2018-11-29T02:18:37.334Z,12.60
2018-11-29T02:21:06.525Z,11.37
2018-11-29T02:23:34.265Z,9.47
2018-11-29T02:26:02.125Z,9.47
2018-11-29T02:28:29.979Z,7.97
2018-11-29T02:30:57.748Z,10.13
2018-11-29T02:33:25.542Z,10.73
2018-11-29T02:35:53.233Z,10.37
2018-11-29T02:38:20.878Z,8.73
2018-11-29T02:40:49.690Z,9.57
2018-11-29T02:43:17.466Z,10.53
2018-11-29T02:45:45.257Z,10.80
2018-11-29T02:48:12.953Z,9.27
2018-11-29T02:50:40.677Z,9.83
2018-11-29T02:53:08.360Z,8.07
2018-11-29T02:55:36.076Z,7.80
2018-11-29T02:58:04.127Z,9.13
2018-11-29T03:00:31.816Z,8.27
2018-11-29T03:02:59.583Z,9.67
2018-11-29T03:05:27.272Z,9.47
2018-11-29T03:07:54.938Z,12.03
2018-11-29T03:10:27.042Z,9.53
2018-11-29T03:12:54.774Z,8.33
2018-11-29T03:15:22.417Z,7.87
2018-11-29T03:17:50.234Z,7.40
2018-11-29T03:20:18.007Z,6.63
2018-11-29T03:22:45.712Z,6.07
2018-11-29T03:25:16.306Z,7.43
2018-11-29T03:27:44.513Z,8.03
2018-11-29T03:30:13.068Z,7.47
2018-11-29T03:32:40.807Z,6.60
2018-11-29T03:35:09.466Z,8.23
2018-11-29T03:37:37.069Z,7.30
2018-11-29T03:40:07.921Z,7.00
2018-11-29T03:42:35.579Z,7.17
2018-11-29T03:45:03.371Z,6.10
2018-11-29T03:47:31.143Z,6.30
2018-11-29T03:49:58.780Z,6.00
2018-11-29T03:52:26.426Z,9.53
2018-11-29T03:54:55.225Z,7.77
2018-11-29T03:57:23.017Z,9.13
2018-11-29T03:59:50.678Z,8.27
2018-11-29T04:02:18.357Z,7.70
2018-11-29T04:04:45.958Z,6.83
2018-11-29T04:07:13.590Z,6.07
2018-11-29T04:09:41.175Z,5.40
2018-11-29T04:12:08.802Z,5.73
2018-11-29T04:14:37.512Z,6.53
2018-11-29T04:17:05.170Z,6.07
2018-11-29T04:19:32.801Z,8.20
2018-11-29T04:22:00.614Z,7.43
2018-11-29T04:24:28.220Z,7.20
2018-11-29T04:26:55.825Z,7.27
2018-11-29T04:29:23.494Z,8.40
2018-11-29T04:31:51.306Z,7.10
2018-11-29T04:34:18.903Z,6.40
2018-11-29T04:36:46.545Z,8.30
2018-11-29T04:39:14.131Z,11.50
2018-11-29T04:41:41.765Z,10.27
2018-11-29T04:44:09.366Z,8.20
2018-11-29T04:46:47.194Z,7.50
2018-11-29T04:49:14.918Z,7.23
2018-11-29T04:51:42.547Z,6.97
2018-11-29T04:54:10.373Z,6.50
2018-11-29T04:56:38.181Z,8.00
2018-11-29T04:59:06.062Z,6.80
2018-11-29T05:01:33.809Z,6.47
2018-11-29T05:04:01.529Z,11.33
2018-11-29T05:06:29.150Z,9.13
2018-11-29T05:08:56.800Z,7.97
2018-11-29T05:11:24.461Z,7.73
2018-11-29T05:13:53.146Z,7.53
2018-11-29T05:16:20.817Z,7.30
2018-11-29T05:18:48.431Z,8.67
2018-11-29T05:21:16.325Z,6.87
2018-11-29T05:23:44.040Z,8.07
2018-11-29T05:26:11.709Z,6.97
2018-11-29T05:28:39.310Z,6.43
2018-11-29T05:31:07.005Z,5.83
2018-11-29T05:33:34.685Z,6.10
2018-11-29T05:36:02.339Z,6.93
2018-11-29T05:38:29.953Z,5.80
2018-11-29T05:40:57.532Z,7.77
2018-11-29T05:43:25.098Z,6.90
2018-11-29T05:45:52.719Z,6.03
2018-11-29T05:48:20.430Z,6.90
2018-11-29T05:50:48.029Z,7.57
2018-11-29T05:53:15.655Z,6.23
2018-11-29T05:55:43.323Z,5.63
2018-11-29T05:58:11.257Z,6.17
2018-11-29T06:00:39.166Z,6.97
2018-11-29T06:03:06.872Z,7.27
2018-11-29T06:05:34.438Z,7.67
2018-11-29T06:08:02.134Z,6.70
2018-11-29T06:10:29.925Z,5.30
2018-11-29T06:12:57.554Z,6.17
2018-11-29T06:15:25.161Z,8.73
2018-11-29T06:17:52.781Z,17.37
2018-11-29T06:20:20.448Z,18.40
2018-11-29T06:22:48.048Z,17.00
2018-11-29T06:25:15.900Z,17.87
2018-11-29T06:27:43.668Z,20.53
2018-11-29T06:30:19.968Z,22.23
2018-11-29T06:32:48.220Z,21.80
2018-11-29T06:35:15.928Z,22.27
2018-11-29T06:37:43.740Z,27.03
2018-11-29T06:40:12.276Z,28.80
2018-11-29T06:42:40.044Z,25.17
2018-11-29T06:45:11.042Z,20.73
2018-11-29T06:47:38.667Z,19.30
2018-11-29T06:50:13.422Z,16.13
2018-11-29T06:52:42.037Z,15.17
2018-11-29T06:55:11.138Z,14.10
2018-11-29T06:57:38.826Z,16.30
2018-11-29T07:00:12.906Z,13.03
2018-11-29T07:02:40.540Z,11.10
2018-11-29T07:05:08.480Z,10.17
2018-11-29T07:07:36.101Z,9.27
2018-11-29T07:10:11.537Z,8.63
2018-11-29T07:12:39.892Z,11.23
2018-11-29T07:15:11.996Z,8.60
2018-11-29T07:17:41.019Z,14.20
2018-11-29T07:20:12.315Z,11.43
2018-11-29T07:22:40.014Z,14.20
2018-11-29T07:25:08.365Z,15.23
2018-11-29T07:27:36.512Z,15.90
2018-11-29T07:30:10.830Z,16.33
2018-11-29T07:32:38.447Z,12.10
2018-11-29T07:35:07.253Z,11.57
2018-11-29T07:37:34.867Z,9.73
2018-11-29T07:40:02.549Z,10.67
2018-11-29T07:42:30.182Z,9.60
2018-11-29T07:44:57.803Z,8.50
2018-11-29T07:47:25.425Z,9.57
2018-11-29T07:49:53.042Z,9.17
2018-11-29T07:52:20.623Z,13.20
2018-11-29T07:54:48.224Z,13.37
2018-11-29T07:57:15.858Z,12.43
2018-11-29T07:59:43.502Z,12.50
2018-11-29T08:02:11.176Z,10.93
2018-11-29T08:04:38.792Z,10.03
2018-11-29T08:07:06.417Z,10.77
2018-11-29T08:09:34.041Z,13.27
2018-11-29T08:12:01.879Z,12.23
2018-11-29T08:14:29.630Z,11.40
2018-11-29T08:16:57.277Z,10.03
2018-11-29T08:19:24.969Z,10.23
2018-11-29T08:21:52.534Z,8.53
2018-11-29T08:24:20.257Z,9.63
2018-11-29T08:26:47.865Z,10.53
2018-11-29T08:29:15.492Z,8.47
2018-11-29T08:31:43.354Z,10.20
2018-11-29T08:34:11.015Z,9.53
2018-11-29T08:36:38.613Z,8.33
2018-11-29T08:39:09.138Z,7.90
2018-11-29T08:41:36.902Z,10.50
2018-11-29T08:44:05.167Z,11.97
2018-11-29T08:46:32.779Z,19.83
2018-11-29T08:49:00.451Z,24.60
2018-11-29T08:51:28.098Z,20.33
2018-11-29T08:53:55.782Z,20.20
2018-11-29T08:56:23.429Z,20.57
2018-11-29T08:58:51.106Z,20.60
2018-11-29T09:01:18.721Z,19.47
2018-11-29T09:03:46.332Z,19.70
2018-11-29T09:06:13.940Z,20.20
2018-11-29T09:08:41.615Z,16.90
2018-11-29T09:11:09.242Z,16.57
2018-11-29T09:13:36.935Z,14.80
2018-11-29T09:16:06.661Z,13.07
2018-11-29T09:18:34.294Z,10.80
2018-11-29T09:21:01.904Z,9.33
2018-11-29T09:23:29.544Z,8.60
2018-11-29T09:25:57.177Z,9.10
2018-11-29T09:28:24.946Z,9.13
2018-11-29T09:30:52.577Z,9.40
2018-11-29T09:33:20.238Z,10.70
2018-11-29T09:35:47.917Z,10.00
2018-11-29T09:38:15.572Z,13.20
2018-11-29T09:40:43.330Z,12.23
2018-11-29T09:43:11.021Z,11.05
2018-11-29T09:45:38.690Z,11.70
2018-11-29T09:48:06.343Z,10.68
2018-11-29T09:50:33.971Z,11.00
2018-11-29T09:53:01.665Z,10.72
2018-11-29T09:55:29.365Z,9.88
2018-11-29T09:57:57.043Z,8.53
2018-11-29T10:00:28.247Z,7.42
2018-11-29T10:03:02.733Z,6.10
2018-11-29T10:05:30.386Z,6.45
2018-11-29T10:07:58.050Z,9.55
2018-11-29T10:10:26.891Z,11.08
2018-11-29T10:12:54.589Z,9.63
2018-11-29T10:15:22.300Z,9.08
2018-11-29T10:17:49.914Z,9.63
2018-11-29T10:20:17.593Z,10.88
2018-11-29T10:22:45.283Z,11.43
2018-11-29T10:25:13.830Z,11.30
2018-11-29T10:27:44.177Z,9.50
2018-11-29T10:30:18.545Z,7.90
2018-11-29T10:32:46.192Z,8.75
2018-11-29T10:35:13.901Z,9.03
2018-11-29T10:37:41.605Z,8.55
2018-11-29T10:40:10.096Z,9.28
2018-11-29T10:42:37.716Z,7.15
2018-11-29T10:45:09.293Z,7.83
2018-11-29T10:47:36.887Z,7.42
2018-11-29T10:50:06.944Z,7.28
2018-11-29T10:52:34.621Z,8.58
2018-11-29T10:55:02.294Z,9.08
2018-11-29T10:57:29.913Z,7.47
2018-11-29T10:59:58.466Z,8.35
2018-11-29T11:02:28.885Z,7.20
2018-11-29T11:04:56.954Z,7.07
2018-11-29T11:07:24.794Z,8.08
2018-11-29T11:09:52.415Z,7.42
2018-11-29T11:12:20.099Z,7.17
2018-11-29T11:14:47.713Z,7.83
2018-11-29T11:17:15.372Z,9.30
2018-11-29T11:19:43.064Z,8.35
2018-11-29T11:22:10.833Z,7.70
2018-11-29T11:24:38.551Z,7.90
2018-11-29T11:27:06.261Z,7.40
2018-11-29T11:29:33.953Z,7.58
2018-11-29T11:32:01.887Z,6.25
2018-11-29T11:34:29.551Z,6.50
2018-11-29T11:36:57.270Z,7.30
2018-11-29T11:39:24.860Z,6.33
2018-11-29T11:41:52.512Z,5.40
2018-11-29T11:44:20.218Z,5.87
2018-11-29T11:46:47.862Z,4.97
2018-11-29T11:49:15.498Z,5.58
2018-11-29T11:51:43.122Z,5.58
2018-11-29T11:54:10.731Z,5.08
2018-11-29T11:56:38.465Z,4.85
2018-11-29T11:59:06.130Z,4.40
2018-11-29T12:01:33.850Z,4.22
2018-11-29T12:04:01.530Z,4.40
2018-11-29T12:06:29.189Z,4.12
2018-11-29T12:08:56.807Z,4.10
2018-11-29T12:11:24.463Z,4.50
2018-11-29T12:13:52.123Z,4.47
2018-11-29T12:16:19.760Z,4.00
2018-11-29T12:18:47.395Z,3.83
2018-11-29T12:21:15.038Z,3.35
2018-11-29T12:23:42.636Z,3.25
2018-11-29T12:26:10.270Z,5.40
2018-11-29T12:28:37.893Z,8.10
2018-11-29T12:31:05.826Z,7.60
2018-11-29T12:33:33.550Z,6.90
2018-11-29T12:36:01.205Z,7.55
2018-11-29T12:38:28.797Z,7.15
2018-11-29T12:40:56.444Z,5.75
2018-11-29T12:43:24.205Z,6.47
2018-11-29T12:45:51.899Z,7.58
2018-11-29T12:48:19.595Z,8.33
2018-11-29T12:50:47.245Z,7.97
2018-11-29T12:53:14.825Z,6.77
2018-11-29T12:55:43.718Z,6.10
2018-11-29T12:58:11.372Z,5.70
2018-11-29T13:00:39.055Z,6.05
2018-11-29T13:05:36.570Z,6.10
2018-11-29T13:08:04.727Z,4.42
2018-11-29T13:10:32.814Z,5.42
2018-11-29T13:13:00.550Z,4.55
2018-11-29T13:15:30.410Z,5.40
2018-11-29T13:17:59.006Z,6.47
2018-11-29T13:20:32.169Z,6.45
2018-11-29T13:22:54.397Z,7.10
2018-11-29T13:25:23.151Z,6.57
2018-11-29T13:27:50.811Z,6.87
2018-11-29T13:30:19.635Z,5.55
2018-11-29T13:32:48.470Z,5.33
2018-11-29T13:35:17.885Z,7.00
2018-11-29T13:37:49.830Z,8.23
2018-11-29T13:42:45.035Z,7.70
2018-11-29T13:45:12.709Z,8.33
2018-11-29T13:47:40.687Z,9.17
2018-11-29T13:50:11.720Z,12.63
2018-11-29T13:52:38.843Z,10.17
2018-11-29T13:55:07.645Z,11.30
2018-11-29T13:57:35.292Z,12.63
2018-11-29T14:00:03.024Z,10.87
2018-11-29T14:02:30.784Z,11.63
2018-11-29T14:04:58.471Z,10.83
2018-11-29T14:07:26.141Z,8.83
2018-11-29T14:09:53.745Z,10.00
2018-11-29T14:12:21.396Z,9.10
2018-11-29T14:14:49.038Z,8.23
2018-11-29T14:17:16.690Z,7.10
2018-11-29T14:19:44.298Z,7.37
2018-11-29T14:22:11.978Z,8.33
2018-11-29T14:24:39.602Z,8.37
2018-11-29T14:27:07.211Z,8.97
2018-11-29T14:29:34.879Z,8.80
2018-11-29T14:32:02.507Z,11.03
2018-11-29T14:34:30.157Z,12.53
2018-11-29T14:36:57.991Z,11.87
2018-11-29T14:39:25.485Z,11.23
2018-11-29T14:41:53.169Z,9.90
2018-11-29T14:44:20.820Z,8.53
2018-11-29T14:46:48.513Z,8.33
2018-11-29T14:49:16.167Z,7.97
2018-11-29T14:51:47.996Z,7.50
2018-11-29T14:54:18.065Z,6.37
2018-11-29T14:57:04.971Z,8.70
2018-11-29T14:59:38.795Z,12.63
2018-11-29T15:02:38.922Z,10.63
2018-11-29T15:08:35.221Z,8.30
2018-11-29T15:11:08.151Z,9.87
2018-11-29T15:13:42.915Z,9.87
2018-11-29T15:16:13.078Z,13.43
2018-11-29T15:18:45.871Z,14.17
2018-11-29T15:21:14.537Z,12.80
2018-11-29T15:23:42.363Z,13.97
2018-11-29T15:26:15.536Z,12.87
2018-11-29T15:28:58.066Z,17.37
2018-11-29T15:32:04.369Z,17.07
2018-11-29T15:34:32.213Z,16.57
2018-11-29T15:36:59.916Z,14.30
2018-11-29T15:39:31.132Z,12.83
2018-11-29T15:42:00.541Z,11.23
2018-11-29T15:44:35.086Z,10.07
2018-11-29T15:47:08.579Z,9.30
2018-11-29T15:49:39.330Z,13.83
2018-11-29T15:52:10.702Z,13.27
2018-11-29T15:54:54.584Z,11.62
2018-11-29T15:57:36.819Z,9.40
2018-11-29T16:00:21.831Z,8.80
2018-11-29T16:03:06.992Z,9.63
2018-11-29T16:05:59.009Z,12.17
2018-11-29T16:08:33.317Z,10.18
2018-11-29T16:11:02.377Z,8.57
2018-11-29T16:16:21.480Z,8.83
2018-11-29T16:18:51.678Z,8.00
2018-11-29T16:21:21.315Z,7.40
2018-11-29T16:23:54.198Z,7.30
2018-11-29T16:31:47.854Z,5.80
2018-11-29T16:34:15.545Z,5.43
2018-11-29T16:36:43.279Z,5.33
2018-11-29T16:39:11.129Z,5.30
2018-11-29T16:41:38.772Z,5.30
2018-11-29T16:44:06.442Z,5.40
2018-11-29T16:46:34.115Z,5.33
2018-11-29T16:49:02.914Z,5.37
2018-11-29T16:51:29.504Z,5.33
2018-11-29T16:53:57.154Z,7.30
2018-11-29T16:56:24.777Z,9.50
2018-11-29T16:58:52.441Z,10.37
2018-11-29T17:01:20.083Z,11.90
2018-11-29T17:03:47.730Z,17.30
2018-11-29T17:06:15.326Z,15.63
2018-11-29T17:08:43.005Z,15.17
2018-11-29T17:11:10.672Z,15.30
2018-11-29T17:13:38.343Z,13.70
2018-11-29T17:16:06.290Z,11.23
2018-11-29T17:18:34.102Z,11.03
2018-11-29T17:21:02.859Z,11.33
2018-11-29T17:23:30.517Z,11.37
2018-11-29T17:25:58.176Z,10.43
2018-11-29T17:28:25.835Z,10.83
2018-11-29T17:30:53.473Z,9.27
2018-11-29T17:33:21.130Z,9.40
2018-11-29T17:35:48.793Z,9.33
2018-11-29T17:38:16.502Z,11.43
2018-11-29T17:40:44.194Z,10.37
2018-11-29T17:43:11.864Z,9.67
2018-11-29T17:45:40.049Z,9.20
2018-11-29T17:48:09.130Z,9.10
2018-11-29T17:50:39.538Z,9.47
2018-11-29T17:53:07.752Z,7.57
2018-11-29T17:55:35.697Z,8.20
2018-11-29T17:58:08.558Z,11.13
2018-11-29T18:00:46.943Z,11.73
2018-11-29T18:03:19.511Z,11.07
2018-11-29T18:05:47.693Z,10.37
2018-11-29T18:08:15.454Z,9.27
2018-11-29T18:10:43.113Z,9.63
2018-11-29T18:13:29.480Z,11.77
2018-11-29T18:15:57.252Z,11.53
2018-11-29T18:18:24.926Z,11.00
2018-11-29T18:20:52.613Z,9.37
2018-11-29T18:23:20.272Z,10.87
2018-11-29T18:25:47.984Z,10.67
2018-11-29T18:28:15.567Z,9.63
2018-11-29T18:30:43.213Z,9.37
2018-11-29T18:33:10.826Z,8.77
2018-11-29T18:35:38.470Z,7.97
2018-11-29T18:38:06.902Z,7.10
2018-11-29T18:40:34.875Z,6.80
2018-11-29T18:43:03.756Z,7.17
2018-11-29T18:45:30.271Z,7.07
2018-11-29T18:47:57.853Z,7.43
2018-11-29T18:50:25.995Z,7.47
2018-11-29T18:52:54.573Z,6.57
2018-11-29T18:55:24.015Z,6.43
2018-11-29T18:57:52.042Z,6.97
2018-11-29T19:00:22.594Z,6.30
2018-11-29T19:02:50.215Z,7.87
2018-11-29T19:05:17.925Z,7.30
2018-11-29T19:07:45.971Z,7.87
2018-11-29T19:10:15.215Z,6.77
2018-11-29T19:12:45.173Z,7.03
2018-11-29T19:15:13.006Z,7.53
2018-11-29T19:17:40.711Z,7.93
2018-11-29T19:20:11.603Z,7.50
2018-11-29T19:22:39.243Z,8.27
2018-11-29T19:25:08.746Z,9.70
2018-11-29T19:27:36.316Z,9.73
2018-11-29T19:30:05.759Z,9.93
2018-11-29T19:32:33.348Z,9.20
2018-11-29T19:35:00.990Z,8.67
2018-11-29T19:37:28.574Z,8.63
2018-11-29T19:39:56.242Z,7.90
2018-11-29T19:42:23.858Z,7.17
2018-11-29T19:44:51.725Z,6.80
2018-11-29T19:47:19.336Z,6.50
2018-11-29T19:49:46.989Z,5.73
2018-11-29T19:52:14.658Z,6.63
2018-11-29T19:54:42.311Z,7.67
2018-11-29T19:57:10.039Z,7.47
2018-11-29T19:59:37.709Z,7.47
2018-11-29T20:02:05.370Z,7.70
2018-11-29T20:04:33.058Z,13.53
2018-11-29T20:07:00.754Z,17.40
2018-11-29T20:09:28.692Z,14.43
2018-11-29T20:11:56.412Z,12.27
2018-11-29T20:14:24.034Z,11.43
2018-11-29T20:16:51.651Z,9.73
2018-11-29T20:19:19.422Z,8.40
2018-11-29T20:21:47.257Z,7.67
2018-11-29T20:24:15.005Z,8.13
2018-11-29T20:26:42.705Z,8.07
2018-11-29T20:29:10.334Z,7.80
2018-11-29T20:31:37.945Z,8.17
2018-11-29T20:34:05.641Z,8.73
2018-11-29T20:36:33.208Z,8.03
2018-11-29T20:39:00.906Z,7.87
2018-11-29T20:41:28.742Z,7.37
2018-11-29T20:43:56.342Z,8.87
2018-11-29T20:46:24.012Z,7.53
2018-11-29T20:48:51.615Z,6.93
2018-11-29T20:51:19.433Z,6.77
2018-11-29T20:53:47.097Z,8.13
2018-11-29T20:56:15.006Z,6.97
2018-11-29T20:58:42.687Z,6.47
2018-11-29T21:01:10.335Z,6.77
2018-11-29T21:03:38.029Z,6.43
2018-11-29T21:06:08.717Z,6.47
2018-11-29T21:08:36.309Z,6.00
2018-11-29T21:11:03.961Z,5.40
2018-11-29T21:13:31.633Z,5.50
2018-11-29T21:15:59.292Z,5.10
2018-11-29T21:18:26.921Z,5.50
2018-11-29T21:20:54.705Z,6.00
2018-11-29T21:23:22.314Z,5.27
2018-11-29T21:25:49.947Z,5.37
2018-11-29T21:28:17.542Z,4.97
2018-11-29T21:30:45.355Z,4.80
2018-11-29T21:33:12.947Z,5.13
2018-11-29T21:35:40.615Z,5.73
2018-11-29T21:38:16.256Z,6.03
2018-11-29T21:41:01.537Z,4.90
2018-11-29T21:43:29.342Z,7.73
2018-11-29T21:45:56.938Z,5.80
2018-11-29T21:48:24.559Z,5.37
2018-11-29T21:50:52.265Z,5.40
2018-11-29T21:53:19.894Z,5.57
2018-11-29T21:55:47.536Z,6.50
2018-11-29T21:58:15.305Z,6.13
2018-11-29T22:00:42.899Z,6.27
2018-11-29T22:03:10.540Z,6.00
2018-11-29T22:05:38.566Z,6.00
2018-11-29T22:08:06.306Z,6.50
2018-11-29T22:10:33.969Z,6.30
2018-11-29T22:13:01.557Z,5.63
2018-11-29T22:15:29.620Z,7.23
2018-11-29T22:18:30.741Z,8.60
2018-11-29T22:21:00.954Z,7.30
2018-11-29T22:23:28.708Z,7.37
2018-11-29T22:25:57.702Z,6.83
2018-11-29T22:28:25.483Z,6.57
2018-11-29T22:30:53.948Z,7.37
2018-11-29T22:33:21.605Z,6.53
2018-11-29T22:35:49.425Z,7.50
2018-11-29T22:38:17.141Z,8.03
2018-11-29T22:40:45.071Z,8.63
2018-11-29T22:43:12.825Z,6.80
2018-11-29T22:45:40.584Z,6.67
2018-11-29T22:48:08.247Z,8.13
2018-11-29T22:50:37.912Z,6.77
2018-11-29T22:53:05.673Z,8.73
2018-11-29T22:55:33.241Z,8.47
2018-11-29T22:58:01.030Z,7.37
2018-11-29T23:00:34.182Z,8.13
2018-11-29T23:03:01.822Z,8.43
2018-11-29T23:05:29.482Z,8.53
2018-11-29T23:07:57.247Z,7.90
2018-11-29T23:10:25.001Z,6.10
2018-11-29T23:12:52.735Z,7.37
2018-11-29T23:15:20.376Z,6.93
2018-11-29T23:17:48.003Z,6.90
2018-11-29T23:20:15.686Z,6.30
2018-11-29T23:22:44.549Z,5.13
2018-11-29T23:25:13.155Z,5.87
2018-11-29T23:27:40.929Z,5.77
2018-11-29T23:30:13.533Z,5.67
2018-11-29T23:32:41.651Z,4.30
2018-11-29T23:35:09.516Z,4.30
2018-11-29T23:37:37.310Z,5.50
2018-11-29T23:40:07.568Z,5.67
2018-11-29T23:42:35.202Z,4.97
2018-11-29T23:45:03.762Z,5.30
2018-11-29T23:47:31.342Z,4.80
2018-11-29T23:49:58.970Z,5.30
2018-11-29T23:52:28.704Z,6.33
2018-11-29T23:54:56.414Z,5.43
2018-11-29T23:57:23.995Z,5.40
2018-11-29T23:59:51.682Z,5.77
